sensor_id;sensor_type;location;lat;lon;timestamp;pressure;altitude;pressure_sealevel;temperature;humidity
47530;BME280;33272;51.922;7.730;2023-02-13T00:01:21;144812.66;;;9.33;100.00
47530;BME280;33272;51.922;7.730;2023-02-13T00:03:48;144806.38;;;9.30;100.00
47530;BME280;33272;51.922;7.730;2023-02-13T00:06:15;144806.38;;;9.30;100.00
47530;BME280;33272;51.922;7.730;2023-02-13T00:08:42;144807.63;;;9.31;100.00
47530;BME280;33272;51.922;7.730;2023-02-13T00:11:09;144800.03;;;9.27;100.00
47530;BME280;33272;51.922;7.730;2023-02-13T00:13:36;144796.22;;;9.26;100.00
47530;BME280;33272;51.922;7.730;2023-02-13T00:16:05;144793.69;;;9.25;100.00
47530;BME280;33272;51.922;7.730;2023-02-13T00:18:35;144792.44;;;9.24;100.00
47530;BME280;33272;51.922;7.730;2023-02-13T00:21:06;144791.19;;;9.24;100.00
47530;BME280;33272;51.922;7.730;2023-02-13T00:23:36;144792.44;;;9.24;100.00
47530;BME280;33272;51.922;7.730;2023-02-13T00:26:07;144788.63;;;9.23;100.00
47530;BME280;33272;51.922;7.730;2023-02-13T00:28:35;144784.84;;;9.21;100.00
47530;BME280;33272;51.922;7.730;2023-02-13T00:31:06;144783.56;;;9.21;100.00
47530;BME280;33272;51.922;7.730;2023-02-13T00:33:34;144783.56;;;9.21;100.00
47530;BME280;33272;51.922;7.730;2023-02-13T00:36:04;144783.56;;;9.21;100.00
47530;BME280;33272;51.922;7.730;2023-02-13T00:38:31;144774.69;;;9.17;100.00
47530;BME280;33272;51.922;7.730;2023-02-13T00:40:58;144775.97;;;9.18;100.00
47530;BME280;33272;51.922;7.730;2023-02-13T00:43:25;144775.97;;;9.18;100.00
47530;BME280;33272;51.922;7.730;2023-02-13T00:45:52;144778.50;;;9.19;100.00
47530;BME280;33272;51.922;7.730;2023-02-13T00:48:21;144779.75;;;9.19;100.00
47530;BME280;33272;51.922;7.730;2023-02-13T00:50:48;144774.69;;;9.17;100.00
47530;BME280;33272;51.922;7.730;2023-02-13T00:53:16;144768.38;;;9.15;100.00
47530;BME280;33272;51.922;7.730;2023-02-13T00:55:43;144768.38;;;9.15;100.00
47530;BME280;33272;51.922;7.730;2023-02-13T00:58:10;144768.38;;;9.15;100.00
47530;BME280;33272;51.922;7.730;2023-02-13T01:00:37;144763.31;;;9.13;100.00
47530;BME280;33272;51.922;7.730;2023-02-13T01:03:05;144764.56;;;9.13;100.00
47530;BME280;33272;51.922;7.730;2023-02-13T01:05:33;144770.91;;;9.16;100.00
47530;BME280;33272;51.922;7.730;2023-02-13T01:08:00;144770.91;;;9.16;100.00
47530;BME280;33272;51.922;7.730;2023-02-13T01:10:27;144769.63;;;9.15;100.00
47530;BME280;33272;51.922;7.730;2023-02-13T01:12:54;144762.06;;;9.12;100.00
47530;BME280;33272;51.922;7.730;2023-02-13T01:15:21;144756.97;;;9.10;100.00
47530;BME280;33272;51.922;7.730;2023-02-13T01:17:49;144746.84;;;9.06;100.00
47530;BME280;33272;51.922;7.730;2023-02-13T01:20:18;144743.03;;;9.04;100.00
47530;BME280;33272;51.922;7.730;2023-02-13T01:22:46;144744.34;;;9.05;100.00
47530;BME280;33272;51.922;7.730;2023-02-13T01:25:13;144738.00;;;9.02;100.00
47530;BME280;33272;51.922;7.730;2023-02-13T01:27:40;144732.91;;;9.00;100.00
47530;BME280;33272;51.922;7.730;2023-02-13T01:30:12;144726.59;;;8.98;100.00
47530;BME280;33272;51.922;7.730;2023-02-13T01:32:40;144722.81;;;8.96;100.00
47530;BME280;33272;51.922;7.730;2023-02-13T01:35:08;144717.72;;;8.94;100.00
47530;BME280;33272;51.922;7.730;2023-02-13T01:37:36;144711.41;;;8.92;100.00
47530;BME280;33272;51.922;7.730;2023-02-13T01:40:08;144713.97;;;8.93;100.00
47530;BME280;33272;51.922;7.730;2023-02-13T01:42:37;144713.97;;;8.93;100.00
47530;BME280;33272;51.922;7.730;2023-02-13T01:45:12;144712.69;;;8.92;100.00
47530;BME280;33272;51.922;7.730;2023-02-13T01:47:47;144708.88;;;8.91;100.00
47530;BME280;33272;51.922;7.730;2023-02-13T01:50:20;144707.63;;;8.90;100.00
47530;BME280;33272;51.922;7.730;2023-02-13T01:52:52;144705.09;;;8.89;100.00
47530;BME280;33272;51.922;7.730;2023-02-13T01:55:23;144706.34;;;8.90;100.00
47530;BME280;33272;51.922;7.730;2023-02-13T01:57:58;144706.34;;;8.90;100.00
47530;BME280;33272;51.922;7.730;2023-02-13T02:00:27;144705.09;;;8.89;100.00
47530;BME280;33272;51.922;7.730;2023-02-13T02:03:03;144705.09;;;8.89;100.00
47530;BME280;33272;51.922;7.730;2023-02-13T02:05:31;144703.78;;;8.89;100.00
47530;BME280;33272;51.922;7.730;2023-02-13T02:08:03;144707.63;;;8.90;100.00
47530;BME280;33272;51.922;7.730;2023-02-13T02:10:33;144703.78;;;8.89;100.00
47530;BME280;33272;51.922;7.730;2023-02-13T02:13:07;144697.50;;;8.86;100.00
47530;BME280;33272;51.922;7.730;2023-02-13T02:15:35;144692.44;;;8.84;100.00
47530;BME280;33272;51.922;7.730;2023-02-13T02:18:05;144692.44;;;8.84;100.00
47530;BME280;33272;51.922;7.730;2023-02-13T02:27:28;144675.97;;;8.77;100.00
47530;BME280;33272;51.922;7.730;2023-02-13T02:33:30;144669.66;;;8.75;100.00
47530;BME280;33272;51.922;7.730;2023-02-13T02:36:16;144664.56;;;8.73;100.00
47530;BME280;33272;51.922;7.730;2023-02-13T02:39:06;144665.88;;;8.73;100.00
47530;BME280;33272;51.922;7.730;2023-02-13T02:41:51;144665.88;;;8.73;100.00
47530;BME280;33272;51.922;7.730;2023-02-13T02:44:31;144664.56;;;8.73;100.00
47530;BME280;33272;51.922;7.730;2023-02-13T02:47:13;144662.06;;;8.72;100.00
47530;BME280;33272;51.922;7.730;2023-02-13T02:50:16;144658.28;;;8.70;100.00
47530;BME280;33272;51.922;7.730;2023-02-13T02:52:59;144659.53;;;8.71;100.00
47530;BME280;33272;51.922;7.730;2023-02-13T02:55:37;144659.53;;;8.71;100.00
47530;BME280;33272;51.922;7.730;2023-02-13T02:58:14;144660.78;;;8.71;100.00
47530;BME280;33272;51.922;7.730;2023-02-13T03:01:03;144660.78;;;8.71;100.00
47530;BME280;33272;51.922;7.730;2023-02-13T03:03:49;144662.06;;;8.72;100.00
47530;BME280;33272;51.922;7.730;2023-02-13T03:06:39;144663.31;;;8.72;100.00
47530;BME280;33272;51.922;7.730;2023-02-13T03:09:15;144667.13;;;8.74;100.00
47530;BME280;33272;51.922;7.730;2023-02-13T03:12:02;144669.66;;;8.75;100.00
47530;BME280;33272;51.922;7.730;2023-02-13T03:14:47;144672.16;;;8.76;100.00
47530;BME280;33272;51.922;7.730;2023-02-13T03:17:16;144669.66;;;8.75;100.00
47530;BME280;33272;51.922;7.730;2023-02-13T03:20:18;144663.31;;;8.72;100.00
47530;BME280;33272;51.922;7.730;2023-02-13T03:23:12;144659.53;;;8.71;100.00
47530;BME280;33272;51.922;7.730;2023-02-13T03:26:00;144658.28;;;8.70;100.00
47530;BME280;33272;51.922;7.730;2023-02-13T03:28:38;144659.53;;;8.71;100.00
47530;BME280;33272;51.922;7.730;2023-02-13T03:31:31;144659.53;;;8.71;100.00
47530;BME280;33272;51.922;7.730;2023-02-13T03:34:04;144659.53;;;8.71;100.00
47530;BME280;33272;51.922;7.730;2023-02-13T03:36:43;144656.97;;;8.70;100.00
47530;BME280;33272;51.922;7.730;2023-02-13T03:39:43;144660.78;;;8.71;100.00
47530;BME280;33272;51.922;7.730;2023-02-13T03:42:20;144665.88;;;8.73;100.00
47530;BME280;33272;51.922;7.730;2023-02-13T03:44:53;144660.78;;;8.71;100.00
47530;BME280;33272;51.922;7.730;2023-02-13T03:47:35;144659.53;;;8.71;100.00
47530;BME280;33272;51.922;7.730;2023-02-13T03:50:04;144662.06;;;8.72;100.00
47530;BME280;33272;51.922;7.730;2023-02-13T03:52:37;144659.53;;;8.71;100.00
47530;BME280;33272;51.922;7.730;2023-02-13T03:55:10;144667.13;;;8.74;100.00
47530;BME280;33272;51.922;7.730;2023-02-13T03:57:59;144664.56;;;8.73;100.00
47530;BME280;33272;51.922;7.730;2023-02-13T04:00:49;144665.88;;;8.73;100.00
47530;BME280;33272;51.922;7.730;2023-02-13T04:03:23;144665.88;;;8.73;100.00
47530;BME280;33272;51.922;7.730;2023-02-13T04:05:55;144665.88;;;8.73;100.00
47530;BME280;33272;51.922;7.730;2023-02-13T04:08:25;144662.06;;;8.72;100.00
47530;BME280;33272;51.922;7.730;2023-02-13T04:10:59;144659.53;;;8.71;100.00
47530;BME280;33272;51.922;7.730;2023-02-13T04:13:33;144667.13;;;8.74;100.00
47530;BME280;33272;51.922;7.730;2023-02-13T04:16:05;144662.06;;;8.72;100.00
47530;BME280;33272;51.922;7.730;2023-02-13T04:18:34;144662.06;;;8.72;100.00
47530;BME280;33272;51.922;7.730;2023-02-13T04:21:03;144662.06;;;8.72;100.00
47530;BME280;33272;51.922;7.730;2023-02-13T04:23:31;144664.56;;;8.73;100.00
47530;BME280;33272;51.922;7.730;2023-02-13T04:26:04;144665.88;;;8.73;100.00
47530;BME280;33272;51.922;7.730;2023-02-13T04:28:33;144667.13;;;8.74;100.00
47530;BME280;33272;51.922;7.730;2023-02-13T04:31:00;144668.38;;;8.74;100.00
47530;BME280;33272;51.922;7.730;2023-02-13T04:33:27;144660.78;;;8.71;100.00
47530;BME280;33272;51.922;7.730;2023-02-13T04:35:54;144659.53;;;8.71;100.00
47530;BME280;33272;51.922;7.730;2023-02-13T04:38:21;144665.88;;;8.73;100.00
47530;BME280;33272;51.922;7.730;2023-02-13T04:40:48;144665.88;;;8.73;100.00
47530;BME280;33272;51.922;7.730;2023-02-13T04:43:17;144670.91;;;8.75;100.00
47530;BME280;33272;51.922;7.730;2023-02-13T04:45:47;144669.66;;;8.75;100.00
47530;BME280;33272;51.922;7.730;2023-02-13T04:48:14;144669.66;;;8.75;100.00
47530;BME280;33272;51.922;7.730;2023-02-13T04:50:42;144673.47;;;8.76;100.00
47530;BME280;33272;51.922;7.730;2023-02-13T04:53:09;144674.72;;;8.77;100.00
47530;BME280;33272;51.922;7.730;2023-02-13T04:55:36;144679.75;;;8.79;100.00
47530;BME280;33272;51.922;7.730;2023-02-13T04:58:03;144677.25;;;8.78;100.00
47530;BME280;33272;51.922;7.730;2023-02-13T05:00:31;144678.50;;;8.78;100.00
47530;BME280;33272;51.922;7.730;2023-02-13T05:03:04;144669.66;;;8.75;100.00
47530;BME280;33272;51.922;7.730;2023-02-13T05:05:32;144670.91;;;8.75;100.00
47530;BME280;33272;51.922;7.730;2023-02-13T05:07:59;144667.13;;;8.74;100.00
47530;BME280;33272;51.922;7.730;2023-02-13T05:10:27;144670.91;;;8.75;100.00
47530;BME280;33272;51.922;7.730;2023-02-13T05:12:54;144669.66;;;8.75;100.00
47530;BME280;33272;51.922;7.730;2023-02-13T05:15:21;144669.66;;;8.75;100.00
47530;BME280;33272;51.922;7.730;2023-02-13T05:17:50;144669.66;;;8.75;100.00
47530;BME280;33272;51.922;7.730;2023-02-13T05:20:17;144667.13;;;8.74;100.00
47530;BME280;33272;51.922;7.730;2023-02-13T05:22:45;144670.91;;;8.75;100.00
47530;BME280;33272;51.922;7.730;2023-02-13T05:25:30;144670.91;;;8.75;100.00
47530;BME280;33272;51.922;7.730;2023-02-13T05:27:57;144670.91;;;8.75;100.00
47530;BME280;33272;51.922;7.730;2023-02-13T05:30:24;144669.66;;;8.75;100.00
47530;BME280;33272;51.922;7.730;2023-02-13T05:32:52;144668.38;;;8.74;100.00
47530;BME280;33272;51.922;7.730;2023-02-13T05:35:20;144667.13;;;8.74;100.00
47530;BME280;33272;51.922;7.730;2023-02-13T05:37:47;144663.31;;;8.72;100.00
47530;BME280;33272;51.922;7.730;2023-02-13T05:40:15;144662.06;;;8.72;100.00
47530;BME280;33272;51.922;7.730;2023-02-13T05:42:42;144659.53;;;8.71;100.00
47530;BME280;33272;51.922;7.730;2023-02-13T05:45:09;144658.28;;;8.70;100.00
47530;BME280;33272;51.922;7.730;2023-02-13T05:47:36;144658.28;;;8.70;100.00
47530;BME280;33272;51.922;7.730;2023-02-13T05:50:07;144658.28;;;8.70;100.00
47530;BME280;33272;51.922;7.730;2023-02-13T05:52:34;144658.28;;;8.70;100.00
47530;BME280;33272;51.922;7.730;2023-02-13T05:55:01;144659.53;;;8.71;100.00
47530;BME280;33272;51.922;7.730;2023-02-13T05:57:28;144660.78;;;8.71;100.00
47530;BME280;33272;51.922;7.730;2023-02-13T05:59:55;144658.28;;;8.70;100.00
47530;BME280;33272;51.922;7.730;2023-02-13T06:02:22;144658.28;;;8.70;100.00
47530;BME280;33272;51.922;7.730;2023-02-13T06:04:49;144655.72;;;8.69;100.00
47530;BME280;33272;51.922;7.730;2023-02-13T06:07:17;144655.72;;;8.69;100.00
47530;BME280;33272;51.922;7.730;2023-02-13T06:09:44;144656.97;;;8.70;100.00
47530;BME280;33272;51.922;7.730;2023-02-13T06:12:11;144654.47;;;8.69;100.00
47530;BME280;33272;51.922;7.730;2023-02-13T06:14:38;144653.19;;;8.68;100.00
47530;BME280;33272;51.922;7.730;2023-02-13T06:17:05;144649.38;;;8.67;100.00
47530;BME280;33272;51.922;7.730;2023-02-13T06:19:32;144646.88;;;8.66;100.00
47530;BME280;33272;51.922;7.730;2023-02-13T06:21:59;144650.69;;;8.67;100.00
47530;BME280;33272;51.922;7.730;2023-02-13T06:24:28;144649.38;;;8.67;100.00
47530;BME280;33272;51.922;7.730;2023-02-13T06:26:55;144648.13;;;8.66;100.00
47530;BME280;33272;51.922;7.730;2023-02-13T06:29:22;144649.38;;;8.67;100.00
47530;BME280;33272;51.922;7.730;2023-02-13T06:31:49;144646.88;;;8.66;100.00
47530;BME280;33272;51.922;7.730;2023-02-13T06:34:16;144644.34;;;8.65;100.00
47530;BME280;33272;51.922;7.730;2023-02-13T06:36:43;144648.13;;;8.66;100.00
47530;BME280;33272;51.922;7.730;2023-02-13T06:39:10;144648.13;;;8.66;100.00
47530;BME280;33272;51.922;7.730;2023-02-13T06:41:39;144645.59;;;8.65;100.00
47530;BME280;33272;51.922;7.730;2023-02-13T06:44:06;144640.53;;;8.63;100.00
47530;BME280;33272;51.922;7.730;2023-02-13T06:46:33;144639.28;;;8.63;100.00
47530;BME280;33272;51.922;7.730;2023-02-13T06:49:00;144639.28;;;8.63;100.00
47530;BME280;33272;51.922;7.730;2023-02-13T06:51:27;144640.53;;;8.63;100.00
47530;BME280;33272;51.922;7.730;2023-02-13T06:53:54;144636.75;;;8.62;100.00
47530;BME280;33272;51.922;7.730;2023-02-13T06:56:21;144639.28;;;8.63;100.00
47530;BME280;33272;51.922;7.730;2023-02-13T06:58:49;144643.09;;;8.64;100.00
47530;BME280;33272;51.922;7.730;2023-02-13T07:01:16;144636.75;;;8.62;100.00
47530;BME280;33272;51.922;7.730;2023-02-13T07:03:43;144638.00;;;8.62;100.00
47530;BME280;33272;51.922;7.730;2023-02-13T07:06:16;144639.28;;;8.63;100.00
47530;BME280;33272;51.922;7.730;2023-02-13T07:08:43;144644.34;;;8.65;100.00
47530;BME280;33272;51.922;7.730;2023-02-13T07:11:17;144648.13;;;8.66;100.00
47530;BME280;33272;51.922;7.730;2023-02-13T07:13:44;144643.09;;;8.64;100.00
47530;BME280;33272;51.922;7.730;2023-02-13T07:16:12;144645.59;;;8.65;100.00
47530;BME280;33272;51.922;7.730;2023-02-13T07:18:39;144644.34;;;8.65;100.00
47530;BME280;33272;51.922;7.730;2023-02-13T07:21:06;144649.38;;;8.67;100.00
47530;BME280;33272;51.922;7.730;2023-02-13T07:23:33;144654.47;;;8.69;100.00
47530;BME280;33272;51.922;7.730;2023-02-13T07:26:01;144662.06;;;8.72;100.00
47530;BME280;33272;51.922;7.730;2023-02-13T07:28:28;144668.38;;;8.74;100.00
47530;BME280;33272;51.922;7.730;2023-02-13T07:30:56;144670.91;;;8.75;100.00
47530;BME280;33272;51.922;7.730;2023-02-13T07:33:24;144675.97;;;8.77;100.00
47530;BME280;33272;51.922;7.730;2023-02-13T07:35:51;144672.16;;;8.76;100.00
47530;BME280;33272;51.922;7.730;2023-02-13T07:38:18;144679.75;;;8.79;100.00
47530;BME280;33272;51.922;7.730;2023-02-13T07:40:45;144681.00;;;8.79;100.00
47530;BME280;33272;51.922;7.730;2023-02-13T07:43:13;144689.91;;;8.83;100.00
47530;BME280;33272;51.922;7.730;2023-02-13T07:45:39;144693.69;;;8.85;100.00
47530;BME280;33272;51.922;7.730;2023-02-13T07:48:06;144692.44;;;8.84;100.00
47530;BME280;33272;51.922;7.730;2023-02-13T07:50:35;144694.94;;;8.85;100.00
47530;BME280;33272;51.922;7.730;2023-02-13T07:53:02;144700.03;;;8.87;100.00
47530;BME280;33272;51.922;7.730;2023-02-13T07:55:29;144706.34;;;8.90;100.00
47530;BME280;33272;51.922;7.730;2023-02-13T07:57:59;144712.69;;;8.92;100.00
47530;BME280;33272;51.922;7.730;2023-02-13T08:00:26;144719.00;;;8.95;100.00
47530;BME280;33272;51.922;7.730;2023-02-13T08:02:53;144730.41;;;8.99;100.00
47530;BME280;33272;51.922;7.730;2023-02-13T08:05:20;144740.50;;;9.03;100.00
47530;BME280;33272;51.922;7.730;2023-02-13T08:07:48;144755.72;;;9.10;100.00
47530;BME280;33272;51.922;7.730;2023-02-13T08:10:15;144765.81;;;9.14;100.00
47530;BME280;33272;51.922;7.730;2023-02-13T08:13:00;144775.97;;;9.18;100.00
47530;BME280;33272;51.922;7.730;2023-02-13T08:15:27;144786.09;;;9.22;100.00
47530;BME280;33272;51.922;7.730;2023-02-13T08:17:54;144787.34;;;9.22;100.00
47530;BME280;33272;51.922;7.730;2023-02-13T08:20:21;144794.94;;;9.25;100.00
47530;BME280;33272;51.922;7.730;2023-02-13T08:22:51;144802.53;;;9.28;100.00
47530;BME280;33272;51.922;7.730;2023-02-13T08:25:18;144807.63;;;9.31;100.00
47530;BME280;33272;51.922;7.730;2023-02-13T08:27:45;144817.75;;;9.35;100.00
47530;BME280;33272;51.922;7.730;2023-02-13T08:30:13;144826.59;;;9.38;100.00
47530;BME280;33272;51.922;7.730;2023-02-13T08:32:40;144838.03;;;9.43;100.00
47530;BME280;33272;51.922;7.730;2023-02-13T08:35:07;144854.47;;;9.49;100.00
47530;BME280;33272;51.922;7.730;2023-02-13T08:37:34;144867.09;;;9.55;100.00
47530;BME280;33272;51.922;7.730;2023-02-13T08:40:03;144873.44;;;9.57;100.00
47530;BME280;33272;51.922;7.730;2023-02-13T08:42:30;144893.72;;;9.65;100.00
47530;BME280;33272;51.922;7.730;2023-02-13T08:44:57;144907.69;;;9.71;100.00
47530;BME280;33272;51.922;7.730;2023-02-13T08:47:24;144924.13;;;9.78;100.00
47530;BME280;33272;51.922;7.730;2023-02-13T08:49:51;144936.78;;;9.83;100.00
47530;BME280;33272;51.922;7.730;2023-02-13T08:52:18;144955.78;;;9.90;100.00
47530;BME280;33272;51.922;7.730;2023-02-13T08:54:45;144972.25;;;9.97;100.00
47530;BME280;33272;51.922;7.730;2023-02-13T08:57:14;144993.81;;;10.06;100.00
47530;BME280;33272;51.922;7.730;2023-02-13T08:59:40;144992.50;;;10.05;100.00
47530;BME280;33272;51.922;7.730;2023-02-13T09:02:09;145008.97;;;10.12;100.00
47530;BME280;33272;51.922;7.730;2023-02-13T09:04:36;145020.41;;;10.16;100.00
47530;BME280;33272;51.922;7.730;2023-02-13T09:07:03;145010.28;;;10.12;100.00
47530;BME280;33272;51.922;7.730;2023-02-13T09:09:30;145011.53;;;10.13;100.00
47530;BME280;33272;51.922;7.730;2023-02-13T09:11:57;145014.06;;;10.14;100.00
47530;BME280;33272;51.922;7.730;2023-02-13T09:14:27;145030.50;;;10.20;100.00
47530;BME280;33272;51.922;7.730;2023-02-13T09:16:54;145053.38;;;10.30;100.00
47530;BME280;33272;51.922;7.730;2023-02-13T09:19:21;145067.31;;;10.35;100.00
47530;BME280;33272;51.922;7.730;2023-02-13T09:21:48;145078.72;;;10.40;100.00
47530;BME280;33272;51.922;7.730;2023-02-13T09:24:15;145090.13;;;10.44;100.00
47530;BME280;33272;51.922;7.730;2023-02-13T09:26:42;145100.25;;;10.49;100.00
47530;BME280;33272;51.922;7.730;2023-02-13T09:29:09;145101.53;;;10.49;100.00
47530;BME280;33272;51.922;7.730;2023-02-13T09:31:37;145104.09;;;10.50;100.00
47530;BME280;33272;51.922;7.730;2023-02-13T09:34:04;145104.09;;;10.50;100.00
47530;BME280;33272;51.922;7.730;2023-02-13T09:36:31;145096.50;;;10.47;100.00
47530;BME280;33272;51.922;7.730;2023-02-13T09:38:58;145100.25;;;10.49;100.00
47530;BME280;33272;51.922;7.730;2023-02-13T09:41:28;145119.31;;;10.56;100.00
47530;BME280;33272;51.922;7.730;2023-02-13T09:43:58;145149.69;;;10.68;100.00
47530;BME280;33272;51.922;7.730;2023-02-13T09:46:32;145167.47;;;10.76;100.00
47530;BME280;33272;51.922;7.730;2023-02-13T09:49:06;145187.72;;;10.84;100.00
47530;BME280;33272;51.922;7.730;2023-02-13T09:51:34;145202.94;;;10.90;100.00
47530;BME280;33272;51.922;7.730;2023-02-13T09:54:04;145218.16;;;10.96;100.00
47530;BME280;33272;51.922;7.730;2023-02-13T09:56:39;145214.38;;;10.95;100.00
47530;BME280;33272;51.922;7.730;2023-02-13T09:59:34;145199.16;;;10.88;100.00
47530;BME280;33272;51.922;7.730;2023-02-13T10:02:23;145213.09;;;10.94;100.00
47530;BME280;33272;51.922;7.730;2023-02-13T10:05:06;145243.50;;;11.06;100.00
47530;BME280;33272;51.922;7.730;2023-02-13T10:07:42;145262.53;;;11.14;100.00
47530;BME280;33272;51.922;7.730;2023-02-13T10:10:20;145282.81;;;11.22;100.00
47530;BME280;33272;51.922;7.730;2023-02-13T10:13:02;145303.09;;;11.30;100.00
47530;BME280;33272;51.922;7.730;2023-02-13T10:15:39;145308.19;;;11.32;100.00
47530;BME280;33272;51.922;7.730;2023-02-13T10:18:13;145327.19;;;11.40;100.00
47530;BME280;33272;51.922;7.730;2023-02-13T10:20:46;145334.81;;;11.43;100.00
47530;BME280;33272;51.922;7.730;2023-02-13T10:23:21;145320.84;;;11.37;100.00
47530;BME280;33272;51.922;7.730;2023-02-13T10:25:54;145317.06;;;11.36;100.00
47530;BME280;33272;51.922;7.730;2023-02-13T10:28:35;145299.31;;;11.29;100.00
47530;BME280;33272;51.922;7.730;2023-02-13T10:31:07;145296.75;;;11.28;100.00
47530;BME280;33272;51.922;7.730;2023-02-13T10:33:53;145308.19;;;11.32;100.00
47530;BME280;33272;51.922;7.730;2023-02-13T10:36:25;145338.63;;;11.45;100.00
47530;BME280;33272;51.922;7.730;2023-02-13T10:38:57;145361.47;;;11.54;100.00
47530;BME280;33272;51.922;7.730;2023-02-13T10:41:39;145388.09;;;11.65;100.00
47530;BME280;33272;51.922;7.730;2023-02-13T10:44:36;145408.41;;;11.73;100.00
47530;BME280;33272;51.922;7.730;2023-02-13T10:47:21;145432.50;;;11.82;100.00
47530;BME280;33272;51.922;7.730;2023-02-13T10:50:05;145431.22;;;11.82;100.00
47530;BME280;33272;51.922;7.730;2023-02-13T10:52:49;145421.06;;;11.78;100.00
47530;BME280;33272;51.922;7.730;2023-02-13T10:55:37;145412.19;;;11.74;100.00
47530;BME280;33272;51.922;7.730;2023-02-13T10:58:19;145407.09;;;11.72;100.00
47530;BME280;33272;51.922;7.730;2023-02-13T11:00:56;145407.09;;;11.72;100.00
47530;BME280;33272;51.922;7.730;2023-02-13T11:03:27;145408.41;;;11.73;100.00
47530;BME280;33272;51.922;7.730;2023-02-13T11:05:57;145407.09;;;11.72;100.00
47530;BME280;33272;51.922;7.730;2023-02-13T11:08:32;145399.50;;;11.69;100.00
47530;BME280;33272;51.922;7.730;2023-02-13T11:11:00;145409.69;;;11.73;100.00
47530;BME280;33272;51.922;7.730;2023-02-13T11:13:29;145414.72;;;11.75;100.00
47530;BME280;33272;51.922;7.730;2023-02-13T11:15:59;145408.41;;;11.73;100.00
47530;BME280;33272;51.922;7.730;2023-02-13T11:18:34;145405.84;;;11.72;100.00
47530;BME280;33272;51.922;7.730;2023-02-13T11:21:07;145405.84;;;11.72;100.00
47530;BME280;33272;51.922;7.730;2023-02-13T11:23:41;145380.47;;;11.62;100.00
47530;BME280;33272;51.922;7.730;2023-02-13T11:26:13;145350.03;;;11.49;100.00
47530;BME280;33272;51.922;7.730;2023-02-13T11:28:48;145356.38;;;11.52;100.00
47530;BME280;33272;51.922;7.730;2023-02-13T11:31:25;145347.50;;;11.48;100.00
47530;BME280;33272;51.922;7.730;2023-02-13T11:33:53;145347.50;;;11.48;100.00
47530;BME280;33272;51.922;7.730;2023-02-13T11:36:30;145339.91;;;11.45;100.00
47530;BME280;33272;51.922;7.730;2023-02-13T11:39:01;145323.41;;;11.39;100.00
47530;BME280;33272;51.922;7.730;2023-02-13T11:41:38;145304.38;;;11.31;100.00
47530;BME280;33272;51.922;7.730;2023-02-13T11:44:20;145306.94;;;11.32;100.00
47530;BME280;33272;51.922;7.730;2023-02-13T11:46:51;145310.72;;;11.33;100.00
47530;BME280;33272;51.922;7.730;2023-02-13T11:49:21;145324.69;;;11.39;100.00
47530;BME280;33272;51.922;7.730;2023-02-13T11:51:50;145319.59;;;11.37;100.00
47530;BME280;33272;51.922;7.730;2023-02-13T11:54:28;145314.56;;;11.35;100.00
47530;BME280;33272;51.922;7.730;2023-02-13T11:56:59;145301.84;;;11.30;100.00
47530;BME280;33272;51.922;7.730;2023-02-13T11:59:31;145276.50;;;11.20;100.00
47530;BME280;33272;51.922;7.730;2023-02-13T12:02:15;145213.09;;;10.94;100.00
47530;BME280;33272;51.922;7.730;2023-02-13T12:04:42;145176.31;;;10.79;100.00
47530;BME280;33272;51.922;7.730;2023-02-13T12:07:19;145173.81;;;10.78;100.00
47530;BME280;33272;51.922;7.730;2023-02-13T12:09:54;145173.81;;;10.78;100.00
47530;BME280;33272;51.922;7.730;2023-02-13T12:12:31;145183.94;;;10.82;100.00
47530;BME280;33272;51.922;7.730;2023-02-13T12:15:03;145201.66;;;10.89;100.00
47530;BME280;33272;51.922;7.730;2023-02-13T12:17:31;145225.75;;;10.99;100.00
47530;BME280;33272;51.922;7.730;2023-02-13T12:20:00;145251.09;;;11.09;100.00
47530;BME280;33272;51.922;7.730;2023-02-13T12:22:39;145287.88;;;11.24;100.00
47530;BME280;33272;51.922;7.730;2023-02-13T12:25:54;145303.09;;;11.30;100.00
47530;BME280;33272;51.922;7.730;2023-02-13T12:28:44;145314.56;;;11.35;100.00
47530;BME280;33272;51.922;7.730;2023-02-13T12:31:39;145311.97;;;11.34;100.00
47530;BME280;33272;51.922;7.730;2023-02-13T12:35:03;145314.56;;;11.35;100.00
47530;BME280;33272;51.922;7.730;2023-02-13T12:37:54;145341.16;;;11.46;100.00
47530;BME280;33272;51.922;7.730;2023-02-13T12:40:49;145355.13;;;11.51;100.00
47530;BME280;33272;51.922;7.730;2023-02-13T12:46:55;145396.97;;;11.68;100.00
47530;BME280;33272;51.922;7.730;2023-02-13T12:49:48;145390.63;;;11.66;100.00
47530;BME280;33272;51.922;7.730;2023-02-13T12:52:37;145377.97;;;11.60;100.00
47530;BME280;33272;51.922;7.730;2023-02-13T12:55:30;145351.28;;;11.50;100.00
47530;BME280;33272;51.922;7.730;2023-02-13T12:58:18;145334.81;;;11.43;100.00
47530;BME280;33272;51.922;7.730;2023-02-13T13:00:58;145337.34;;;11.44;100.00
47530;BME280;33272;51.922;7.730;2023-02-13T13:03:42;145328.47;;;11.41;100.00
47530;BME280;33272;51.922;7.730;2023-02-13T13:06:37;145313.25;;;11.34;100.00
47530;BME280;33272;51.922;7.730;2023-02-13T13:12:17;145317.06;;;11.36;100.00
47530;BME280;33272;51.922;7.730;2023-02-13T13:14:56;145320.84;;;11.37;100.00
47530;BME280;33272;51.922;7.730;2023-02-13T13:17:43;145317.06;;;11.36;100.00
47530;BME280;33272;51.922;7.730;2023-02-13T13:20:50;145327.19;;;11.40;100.00
47530;BME280;33272;51.922;7.730;2023-02-13T13:23:23;145350.03;;;11.49;100.00
47530;BME280;33272;51.922;7.730;2023-02-13T13:26:08;145357.66;;;11.52;100.00
47530;BME280;33272;51.922;7.730;2023-02-13T13:28:41;145369.09;;;11.57;100.00
47530;BME280;33272;51.922;7.730;2023-02-13T13:31:10;145376.66;;;11.60;100.00
47530;BME280;33272;51.922;7.730;2023-02-13T13:33:42;145376.66;;;11.60;100.00